createdAt,value
2019-01-04T00:00:30.782Z,10.70
2019-01-04T00:01:30.769Z,9.70
2019-01-04T00:02:30.770Z,10.30
2019-01-04T00:03:30.747Z,10.30
2019-01-04T00:04:30.735Z,11.60
2019-01-04T00:05:30.727Z,11.10
2019-01-04T00:06:30.716Z,9.80
2019-01-04T00:07:30.717Z,11.00
2019-01-04T00:08:30.696Z,12.00
2019-01-04T00:09:30.692Z,9.80
2019-01-04T00:10:30.671Z,9.00
2019-01-04T00:11:30.661Z,9.30
2019-01-04T00:12:30.657Z,11.90
2019-01-04T00:13:30.639Z,8.60
2019-01-04T00:14:30.631Z,8.80
2019-01-04T00:15:30.617Z,8.30
2019-01-04T00:16:30.609Z,8.20
2019-01-04T00:17:30.605Z,9.30
2019-01-04T00:18:30.618Z,7.80
2019-01-04T00:19:30.577Z,7.90
2019-01-04T00:20:30.564Z,8.90
2019-01-04T00:21:30.553Z,8.20
2019-01-04T00:22:30.551Z,8.20
2019-01-04T00:23:30.534Z,8.30
2019-01-04T00:24:30.521Z,8.30
2019-01-04T00:25:30.511Z,8.50
2019-01-04T00:26:30.508Z,7.50
2019-01-04T00:27:30.515Z,9.00
2019-01-04T00:28:30.480Z,6.80
2019-01-04T00:29:30.467Z,7.60
2019-01-04T00:30:30.463Z,10.10
2019-01-04T00:31:30.446Z,8.90
2019-01-04T00:32:30.434Z,8.60
2019-01-04T00:33:30.433Z,8.20
2019-01-04T00:34:30.413Z,7.80
2019-01-04T00:35:30.406Z,8.10
2019-01-04T00:36:30.392Z,7.90
2019-01-04T00:37:30.381Z,8.50
2019-01-04T00:38:30.380Z,8.10
2019-01-04T00:39:30.359Z,7.90
2019-01-04T00:40:30.350Z,6.80
2019-01-04T00:41:30.338Z,8.20
2019-01-04T00:42:30.329Z,7.80
2019-01-04T00:43:30.327Z,8.00
2019-01-04T00:44:30.305Z,9.10
2019-01-04T00:45:30.295Z,9.10
2019-01-04T00:46:30.295Z,12.30
2019-01-04T00:47:30.277Z,8.30
2019-01-04T00:48:30.276Z,8.10
2019-01-04T00:49:30.253Z,7.70
2019-01-04T00:50:30.242Z,8.50
2019-01-04T00:51:30.231Z,8.60
2019-01-04T00:52:30.220Z,8.80
2019-01-04T00:53:30.221Z,8.20
2019-01-04T00:54:30.202Z,8.20
2019-01-04T00:55:30.193Z,7.70
2019-01-04T00:56:30.178Z,9.20
2019-01-04T00:57:30.170Z,9.50
2019-01-04T00:58:30.166Z,8.20
2019-01-04T00:59:30.148Z,8.90
2019-01-04T01:00:30.136Z,9.60
2019-01-04T01:01:30.126Z,9.70
2019-01-04T01:02:30.114Z,8.80
2019-01-04T01:03:30.116Z,8.70
2019-01-04T01:04:30.098Z,8.40
2019-01-04T01:05:30.083Z,9.10
2019-01-04T01:06:30.072Z,8.10
2019-01-04T01:07:30.064Z,9.00
2019-01-04T01:08:30.059Z,9.90
2019-01-04T01:09:30.039Z,9.40
2019-01-04T01:10:30.028Z,8.60
2019-01-04T01:11:30.018Z,8.00
2019-01-04T01:12:30.007Z,8.20
2019-01-04T01:13:30.006Z,10.40
2019-01-04T01:14:29.986Z,9.90
2019-01-04T01:15:29.975Z,8.10
2019-01-04T01:16:29.966Z,7.70
2019-01-04T01:17:29.953Z,8.30
2019-01-04T01:18:29.951Z,8.40
2019-01-04T01:19:29.935Z,9.60
2019-01-04T01:20:29.922Z,10.20
2019-01-04T01:21:29.911Z,9.50
2019-01-04T01:22:29.901Z,8.00
2019-01-04T01:23:29.900Z,7.90
2019-01-04T01:24:29.881Z,9.10
2019-01-04T01:25:29.875Z,9.80
2019-01-04T01:26:29.859Z,8.10
2019-01-04T01:27:29.849Z,10.50
2019-01-04T01:28:29.862Z,9.90
2019-01-04T01:29:29.828Z,9.10
2019-01-04T01:30:29.816Z,11.10
2019-01-04T01:31:29.805Z,9.30
2019-01-04T01:32:29.794Z,7.80
2019-01-04T01:33:29.785Z,10.20
2019-01-04T01:34:29.780Z,8.60
2019-01-04T01:35:29.761Z,8.80
2019-01-04T01:36:29.754Z,8.10
2019-01-04T01:37:29.743Z,9.40
2019-01-04T01:38:29.732Z,8.80
2019-01-04T01:39:29.729Z,10.00
2019-01-04T01:40:29.708Z,9.90
2019-01-04T01:41:29.697Z,9.80
2019-01-04T01:42:29.689Z,10.20
2019-01-04T01:43:29.676Z,9.40
2019-01-04T01:44:29.677Z,11.50
2019-01-04T01:45:29.657Z,12.20
2019-01-04T01:46:29.644Z,10.80
2019-01-04T01:47:29.636Z,10.30
2019-01-04T01:48:29.625Z,11.30
2019-01-04T01:49:29.623Z,12.00
2019-01-04T01:50:29.602Z,10.20
2019-01-04T01:51:29.591Z,9.50
2019-01-04T01:52:29.580Z,10.10
2019-01-04T01:53:29.573Z,10.80
2019-01-04T01:54:29.569Z,10.90
2019-01-04T01:55:29.550Z,10.10
2019-01-04T01:56:29.539Z,12.30
2019-01-04T01:57:29.529Z,10.80
2019-01-04T01:58:29.517Z,11.30
2019-01-04T01:59:29.516Z,10.80
2019-01-04T02:00:29.497Z,10.70
2019-01-04T02:01:29.491Z,10.20
2019-01-04T02:02:29.476Z,11.20
2019-01-04T02:03:29.465Z,9.20
2019-01-04T02:04:29.462Z,13.50
2019-01-04T02:05:29.444Z,10.80
2019-01-04T02:06:29.436Z,11.40
2019-01-04T02:07:29.422Z,11.00
2019-01-04T02:08:29.410Z,12.60
2019-01-04T02:09:29.409Z,11.10
2019-01-04T02:10:29.391Z,11.90
2019-01-04T02:11:29.381Z,10.50
2019-01-04T02:12:29.369Z,11.70
2019-01-04T02:13:29.359Z,10.90
2019-01-04T02:14:29.354Z,12.10
2019-01-04T02:15:29.341Z,9.30
2019-01-04T02:16:29.328Z,10.90
2019-01-04T02:17:29.316Z,12.90
2019-01-04T02:18:29.304Z,11.50
2019-01-04T02:19:29.305Z,13.70
2019-01-04T02:20:29.282Z,12.10
2019-01-04T02:21:29.272Z,9.50
2019-01-04T02:22:29.262Z,11.00
2019-01-04T02:23:29.255Z,12.70
2019-01-04T02:24:29.268Z,11.10
2019-01-04T02:25:29.235Z,13.80
2019-01-04T02:26:29.220Z,11.50
2019-01-04T02:27:29.208Z,11.40
2019-01-04T02:28:29.202Z,12.30
2019-01-04T02:29:29.187Z,12.50
2019-01-04T02:30:29.185Z,12.60
2019-01-04T02:31:29.166Z,12.90
2019-01-04T02:32:29.162Z,11.80
2019-01-04T02:33:29.144Z,11.80
2019-01-04T02:34:29.135Z,13.20
2019-01-04T02:35:29.131Z,12.10
2019-01-04T02:36:29.115Z,12.00
2019-01-04T02:37:29.106Z,11.50
2019-01-04T02:38:29.093Z,12.30
2019-01-04T02:39:29.081Z,14.60
2019-01-04T02:40:29.086Z,12.50
2019-01-04T02:41:29.064Z,13.40
2019-01-04T02:42:29.051Z,14.00
2019-01-04T02:43:29.039Z,13.90
2019-01-04T02:44:29.029Z,15.40
2019-01-04T02:45:29.028Z,15.30
2019-01-04T02:46:29.012Z,13.80
2019-01-04T02:47:28.997Z,13.90
2019-01-04T02:48:28.990Z,15.60
2019-01-04T02:49:28.975Z,15.00
2019-01-04T02:50:28.976Z,14.70
2019-01-04T02:51:28.956Z,13.60
2019-01-04T02:52:28.944Z,16.80
2019-01-04T02:53:28.958Z,15.90
2019-01-04T02:54:28.923Z,16.90
2019-01-04T02:55:28.955Z,17.90
2019-01-04T02:56:28.907Z,17.90
2019-01-04T02:57:28.892Z,17.50
2019-01-04T02:58:28.881Z,14.80
2019-01-04T02:59:28.869Z,16.40
2019-01-04T03:00:28.861Z,17.30
2019-01-04T03:01:28.856Z,17.50
2019-01-04T03:02:28.846Z,19.90
2019-01-04T03:03:28.830Z,15.70
2019-01-04T03:04:28.816Z,18.60
2019-01-04T03:05:28.805Z,18.40
2019-01-04T03:06:28.802Z,17.10
2019-01-04T03:07:28.791Z,16.80
2019-01-04T03:08:28.774Z,20.30
2019-01-04T03:09:28.763Z,21.70
2019-01-04T03:10:28.758Z,17.80
2019-01-04T03:11:28.756Z,20.30
2019-01-04T03:12:28.730Z,20.80
2019-01-04T03:13:28.766Z,20.40
2019-01-04T03:14:28.712Z,20.40
2019-01-04T03:15:28.700Z,19.00
2019-01-04T03:16:28.699Z,21.00
2019-01-04T03:17:28.677Z,20.30
2019-01-04T03:18:28.668Z,21.70
2019-01-04T03:19:28.658Z,24.40
2019-01-04T03:20:28.647Z,22.20
2019-01-04T03:21:28.645Z,18.60
2019-01-04T03:22:28.628Z,23.90
2019-01-04T03:23:28.619Z,21.80
2019-01-04T03:24:28.616Z,23.30
2019-01-04T03:25:28.596Z,22.10
2019-01-04T03:26:28.599Z,21.90
2019-01-04T03:27:28.572Z,24.30
2019-01-04T03:28:28.562Z,20.90
2019-01-04T03:29:28.551Z,27.60
2019-01-04T03:30:28.543Z,25.20
2019-01-04T03:31:28.548Z,23.00
2019-01-04T03:32:28.522Z,20.70
2019-01-04T03:33:28.510Z,26.70
2019-01-04T03:34:28.501Z,23.40
2019-01-04T03:35:28.490Z,24.80
2019-01-04T03:36:28.494Z,21.80
2019-01-04T03:37:28.470Z,25.40
2019-01-04T03:38:28.478Z,27.10
2019-01-04T03:39:28.448Z,26.10
2019-01-04T03:40:28.439Z,25.70
2019-01-04T03:41:28.451Z,29.00
2019-01-04T03:42:28.416Z,25.70
2019-01-04T03:43:28.407Z,26.20
2019-01-04T03:44:28.393Z,25.80
2019-01-04T03:45:28.383Z,25.80
2019-01-04T03:46:28.372Z,28.40
2019-01-04T03:47:28.371Z,27.70
2019-01-04T03:48:28.354Z,24.50
2019-01-04T03:49:28.340Z,27.90
2019-01-04T03:50:28.330Z,29.90
2019-01-04T03:51:28.319Z,25.60
2019-01-04T03:52:28.332Z,28.50
2019-01-04T03:53:28.300Z,33.60
2019-01-04T03:54:28.289Z,31.70
2019-01-04T03:55:28.278Z,30.90
2019-01-04T03:56:28.274Z,30.30
2019-01-04T03:57:28.270Z,31.70
2019-01-04T03:58:28.246Z,29.80
2019-01-04T03:59:28.238Z,31.10
2019-01-04T04:00:28.225Z,27.60
2019-01-04T04:01:28.214Z,32.80
2019-01-04T04:02:28.213Z,31.30
2019-01-04T04:03:28.193Z,30.70
2019-01-04T04:04:28.184Z,32.90
2019-01-04T04:05:28.171Z,30.10
2019-01-04T04:06:28.161Z,33.00
2019-01-04T04:07:28.184Z,27.80
2019-01-04T04:08:28.142Z,31.50
2019-01-04T04:09:28.131Z,28.20
2019-01-04T04:10:28.120Z,30.60
2019-01-04T04:11:28.108Z,30.90
2019-01-04T04:12:28.099Z,38.70
2019-01-04T04:13:28.095Z,36.80
2019-01-04T04:14:28.076Z,33.40
2019-01-04T04:15:28.066Z,32.90
2019-01-04T04:16:28.055Z,32.70
2019-01-04T04:17:28.044Z,31.70
2019-01-04T04:18:28.048Z,34.70
2019-01-04T04:19:28.023Z,34.30
2019-01-04T04:20:28.015Z,34.20
2019-01-04T04:21:28.002Z,33.40
2019-01-04T04:22:28.011Z,32.30
2019-01-04T04:23:27.995Z,33.60
2019-01-04T04:24:27.973Z,32.70
2019-01-04T04:25:27.961Z,34.90
2019-01-04T04:26:27.955Z,34.10
2019-01-04T04:27:27.940Z,32.90
2019-01-04T04:28:27.937Z,30.60
2019-01-04T04:29:27.918Z,30.20
2019-01-04T04:30:27.915Z,32.20
2019-01-04T04:31:27.897Z,32.10
2019-01-04T04:32:27.888Z,34.70
2019-01-04T04:33:27.884Z,35.80
2019-01-04T04:34:27.865Z,36.10
2019-01-04T04:35:27.855Z,37.10
2019-01-04T04:36:27.849Z,37.40
2019-01-04T04:37:27.836Z,34.70
2019-01-04T04:38:27.831Z,32.70
2019-01-04T04:39:27.816Z,37.80
2019-01-04T04:40:27.804Z,35.50
2019-01-04T04:41:27.794Z,39.20
2019-01-04T04:42:27.780Z,38.10
2019-01-04T04:43:27.797Z,36.20
2019-01-04T04:44:27.767Z,36.80
2019-01-04T04:45:27.748Z,37.10
2019-01-04T04:46:27.744Z,36.40
2019-01-04T04:47:27.728Z,38.70
2019-01-04T04:48:27.717Z,38.30
2019-01-04T04:49:27.714Z,39.50
2019-01-04T04:50:27.696Z,38.00
2019-01-04T04:51:27.686Z,36.40
2019-01-04T04:52:27.674Z,38.00
2019-01-04T04:53:27.665Z,35.00
2019-01-04T04:54:27.664Z,36.00
2019-01-04T04:55:27.647Z,37.90
2019-01-04T04:56:27.632Z,39.80
2019-01-04T04:57:27.623Z,39.70
2019-01-04T04:58:27.613Z,38.10
2019-01-04T04:59:27.610Z,39.70
2019-01-04T05:00:27.590Z,36.90
2019-01-04T05:01:27.580Z,39.80
2019-01-04T05:02:27.568Z,40.40
2019-01-04T05:03:27.559Z,41.80
2019-01-04T05:04:27.558Z,41.70
2019-01-04T05:05:27.538Z,37.70
2019-01-04T05:06:27.528Z,43.00
2019-01-04T05:07:27.517Z,41.80
2019-01-04T05:08:27.508Z,40.10
2019-01-04T05:09:27.507Z,43.30
2019-01-04T05:10:27.483Z,40.70
2019-01-04T05:11:27.475Z,41.10
2019-01-04T05:12:27.462Z,44.40
2019-01-04T05:13:27.456Z,42.00
2019-01-04T05:14:27.468Z,38.90
2019-01-04T05:15:27.431Z,42.40
2019-01-04T05:16:27.420Z,38.60
2019-01-04T05:17:27.416Z,39.60
2019-01-04T05:18:27.401Z,41.80
2019-01-04T05:19:27.389Z,39.00
2019-01-04T05:20:27.388Z,38.70
2019-01-04T05:21:27.367Z,39.60
2019-01-04T05:22:27.358Z,39.40
2019-01-04T05:23:27.357Z,37.50
2019-01-04T05:24:27.338Z,35.60
2019-01-04T05:25:27.333Z,40.40
2019-01-04T05:26:27.316Z,35.60
2019-01-04T05:27:27.306Z,38.20
2019-01-04T05:28:27.297Z,40.20
2019-01-04T05:29:27.292Z,40.30
2019-01-04T05:30:27.282Z,41.20
2019-01-04T05:31:27.262Z,41.30
2019-01-04T05:32:27.257Z,42.90
2019-01-04T05:33:27.245Z,40.10
2019-01-04T05:34:27.235Z,36.10
2019-01-04T05:35:27.229Z,38.20
2019-01-04T05:36:27.209Z,39.50
2019-01-04T05:37:27.202Z,39.20
2019-01-04T05:38:27.197Z,38.00
2019-01-04T05:39:27.185Z,36.30
2019-01-04T05:40:27.176Z,40.10
2019-01-04T05:41:27.159Z,38.30
2019-01-04T05:42:27.146Z,39.00
2019-01-04T05:43:27.139Z,40.30
2019-01-04T05:44:27.127Z,41.60
2019-01-04T05:45:27.124Z,39.70
2019-01-04T05:46:27.105Z,38.50
2019-01-04T05:47:27.095Z,42.20
2019-01-04T05:48:27.085Z,40.60
2019-01-04T05:49:27.072Z,42.50
2019-01-04T05:50:27.070Z,45.60
2019-01-04T05:51:28.541Z,43.20
2019-01-04T05:52:27.042Z,36.90
2019-01-04T05:53:27.029Z,43.80
2019-01-04T05:54:27.021Z,39.70
2019-01-04T05:55:27.051Z,39.80
2019-01-04T05:56:26.998Z,43.60
2019-01-04T05:57:26.987Z,36.90
2019-01-04T05:58:26.978Z,36.10
2019-01-04T05:59:26.966Z,34.80
2019-01-04T06:00:26.955Z,37.20
2019-01-04T06:01:26.954Z,34.90
2019-01-04T06:02:26.937Z,35.00
2019-01-04T06:03:28.177Z,36.20
2019-01-04T06:04:26.921Z,33.80
2019-01-04T06:05:26.903Z,35.20
2019-01-04T06:06:26.902Z,35.60
2019-01-04T06:07:26.883Z,36.90
2019-01-04T06:08:26.872Z,35.10
2019-01-04T06:09:26.862Z,36.50
2019-01-04T06:10:26.854Z,34.80
2019-01-04T06:11:26.850Z,35.20
2019-01-04T06:12:26.830Z,35.90
2019-01-04T06:13:26.820Z,38.70
2019-01-04T06:14:26.809Z,32.20
2019-01-04T06:15:26.800Z,35.90
2019-01-04T06:16:26.812Z,33.80
2019-01-04T06:17:26.778Z,36.90
2019-01-04T06:18:26.764Z,32.20
2019-01-04T06:19:26.755Z,36.20
2019-01-04T06:20:26.753Z,34.00
2019-01-04T06:21:26.739Z,35.40
2019-01-04T06:22:26.735Z,34.20
2019-01-04T06:23:26.713Z,34.60
2019-01-04T06:24:26.703Z,31.80
2019-01-04T06:25:26.692Z,39.50
2019-01-04T06:26:26.685Z,36.90
2019-01-04T06:27:26.679Z,35.60
2019-01-04T06:28:26.668Z,37.50
2019-01-04T06:29:26.651Z,39.60
2019-01-04T06:30:26.640Z,36.90
2019-01-04T06:31:26.630Z,33.40
2019-01-04T06:32:26.627Z,35.60
2019-01-04T06:33:26.609Z,36.00
2019-01-04T06:34:26.598Z,36.60
2019-01-04T06:35:26.592Z,39.50
2019-01-04T06:36:26.579Z,35.10
2019-01-04T06:37:26.592Z,37.50
2019-01-04T06:38:26.556Z,36.10
2019-01-04T06:39:26.544Z,40.10
2019-01-04T06:40:26.533Z,40.30
2019-01-04T06:41:26.524Z,43.60
2019-01-04T06:42:26.515Z,46.70
2019-01-04T06:43:26.510Z,46.30
2019-01-04T06:44:26.492Z,40.30
2019-01-04T06:45:26.480Z,40.40
2019-01-04T06:46:26.471Z,40.70
2019-01-04T06:47:26.465Z,41.20
2019-01-04T06:48:26.455Z,42.70
2019-01-04T06:49:26.438Z,38.20
2019-01-04T06:50:26.427Z,43.70
2019-01-04T06:51:27.994Z,41.70
2019-01-04T06:52:26.406Z,41.90
2019-01-04T06:53:26.406Z,42.00
2019-01-04T06:54:26.385Z,43.20
2019-01-04T06:55:26.376Z,42.50
2019-01-04T06:56:26.365Z,39.20
2019-01-04T06:57:26.356Z,42.40
2019-01-04T06:58:26.351Z,41.70
2019-01-04T06:59:26.332Z,42.40
2019-01-04T07:00:26.326Z,45.60
2019-01-04T07:01:26.314Z,47.30
2019-01-04T07:02:26.300Z,40.90
2019-01-04T07:03:26.299Z,43.50
2019-01-04T07:04:26.281Z,46.80
2019-01-04T07:05:26.268Z,47.60
2019-01-04T07:06:26.259Z,47.30
2019-01-04T07:07:26.247Z,48.40
2019-01-04T07:08:26.245Z,52.60
2019-01-04T07:09:26.227Z,46.00
2019-01-04T07:10:26.215Z,47.10
2019-01-04T07:11:26.204Z,52.20
2019-01-04T07:12:26.195Z,51.20
2019-01-04T07:13:26.192Z,50.40
2019-01-04T07:14:26.176Z,49.20
2019-01-04T07:15:26.165Z,51.40
2019-01-04T07:16:26.154Z,59.20
2019-01-04T07:17:26.141Z,54.90
2019-01-04T07:18:26.142Z,58.30
2019-01-04T07:19:26.119Z,58.60
2019-01-04T07:20:26.114Z,53.10
2019-01-04T07:21:26.099Z,62.60
2019-01-04T07:22:26.091Z,52.40
2019-01-04T07:23:26.087Z,58.60
2019-01-04T07:24:26.071Z,58.60
2019-01-04T07:25:26.057Z,58.20
2019-01-04T07:26:26.046Z,57.00
2019-01-04T07:27:26.037Z,56.30
2019-01-04T07:28:26.061Z,65.60
2019-01-04T07:29:26.017Z,57.30
2019-01-04T07:30:26.003Z,58.80
2019-01-04T07:31:25.994Z,61.60
2019-01-04T07:32:25.984Z,56.00
2019-01-04T07:33:25.971Z,53.70
2019-01-04T07:34:25.970Z,54.70
2019-01-04T07:35:25.951Z,55.60
2019-01-04T07:36:25.940Z,59.90
2019-01-04T07:37:25.929Z,60.70
2019-01-04T07:38:25.930Z,63.90
2019-01-04T07:39:25.918Z,57.40
2019-01-04T07:40:25.903Z,62.70
2019-01-04T07:41:25.889Z,54.70
2019-01-04T07:42:25.878Z,52.50
2019-01-04T07:43:25.867Z,55.80
2019-01-04T07:44:25.864Z,55.40
2019-01-04T07:45:25.844Z,59.40
2019-01-04T07:46:25.835Z,63.50
2019-01-04T07:47:25.824Z,65.60
2019-01-04T07:48:25.814Z,58.30
2019-01-04T07:49:25.811Z,54.20
2019-01-04T07:50:25.797Z,53.50
2019-01-04T07:51:25.781Z,54.00
2019-01-04T07:52:25.771Z,56.10
2019-01-04T07:53:25.762Z,57.90
2019-01-04T07:54:25.788Z,58.90
2019-01-04T07:55:25.739Z,61.80
2019-01-04T07:56:25.730Z,52.70
2019-01-04T07:57:25.719Z,53.20
2019-01-04T07:58:25.707Z,57.60
2019-01-04T07:59:25.708Z,58.80
2019-01-04T08:00:25.695Z,54.40
2019-01-04T08:01:25.677Z,67.30
2019-01-04T08:02:25.665Z,58.00
2019-01-04T08:03:25.656Z,59.30
2019-01-04T08:04:25.679Z,76.80
2019-01-04T08:05:25.634Z,63.00
2019-01-04T08:06:25.624Z,67.90
2019-01-04T08:07:25.612Z,71.10
2019-01-04T08:08:25.604Z,69.10
2019-01-04T08:09:25.591Z,69.60
2019-01-04T08:10:25.589Z,64.00
2019-01-04T08:11:25.572Z,62.50
2019-01-04T08:12:25.560Z,64.80
2019-01-04T08:13:25.549Z,71.60
2019-01-04T08:14:25.539Z,68.40
2019-01-04T08:15:25.538Z,67.00
2019-01-04T08:16:25.520Z,61.90
2019-01-04T08:17:25.510Z,60.90
2019-01-04T08:18:25.497Z,59.70
2019-01-04T08:19:25.488Z,54.30
2019-01-04T08:20:25.483Z,57.60
2019-01-04T08:21:25.467Z,59.30
2019-01-04T08:22:25.455Z,58.50
2019-01-04T08:23:25.443Z,58.60
2019-01-04T08:24:25.435Z,53.10
2019-01-04T08:25:25.433Z,55.10
2019-01-04T08:26:25.412Z,60.40
2019-01-04T08:27:25.405Z,68.80
2019-01-04T08:28:25.392Z,56.00
2019-01-04T08:29:25.382Z,60.10
2019-01-04T08:30:25.381Z,77.40
2019-01-04T08:31:25.364Z,55.80
2019-01-04T08:32:25.351Z,61.10
2019-01-04T08:33:25.338Z,58.80
2019-01-04T08:34:25.328Z,61.70
2019-01-04T08:35:25.327Z,58.50
2019-01-04T08:36:25.309Z,52.10
2019-01-04T08:37:25.300Z,51.50
2019-01-04T08:38:25.286Z,53.60
2019-01-04T08:39:25.275Z,49.40
2019-01-04T08:40:25.301Z,53.70
2019-01-04T08:41:25.255Z,50.60
2019-01-04T08:42:25.248Z,48.10
2019-01-04T08:43:25.234Z,48.40
2019-01-04T08:44:25.222Z,44.70
2019-01-04T08:45:25.213Z,49.50
2019-01-04T08:46:25.211Z,46.60
2019-01-04T08:47:25.194Z,51.10
2019-01-04T08:48:25.180Z,50.90
2019-01-04T08:49:25.170Z,46.50
2019-01-04T08:50:25.162Z,50.60
2019-01-04T08:51:25.157Z,44.70
2019-01-04T08:52:25.138Z,51.20
2019-01-04T08:53:25.129Z,44.90
2019-01-04T08:54:25.119Z,48.50
2019-01-04T08:55:25.106Z,46.80
2019-01-04T08:56:25.133Z,44.20
2019-01-04T08:57:25.084Z,45.70
2019-01-04T08:58:25.076Z,46.80
2019-01-04T08:59:25.063Z,40.20
2019-01-04T09:00:25.063Z,42.60
2019-01-04T09:01:25.043Z,41.40
2019-01-04T09:02:25.041Z,42.40
2019-01-04T09:03:25.021Z,44.90
2019-01-04T09:04:25.015Z,41.90
2019-01-04T09:05:25.000Z,44.50
2019-01-04T09:06:24.989Z,41.40
2019-01-04T09:07:24.988Z,43.40
2019-01-04T09:08:24.970Z,42.30
2019-01-04T09:09:24.959Z,42.10
2019-01-04T09:10:24.951Z,43.50
2019-01-04T09:11:24.940Z,42.50
2019-01-04T09:12:24.934Z,43.60
2019-01-04T09:13:24.917Z,46.90
2019-01-04T09:14:24.909Z,45.60
2019-01-04T09:15:24.894Z,45.40
2019-01-04T09:16:24.888Z,44.70
2019-01-04T09:17:24.881Z,44.20
2019-01-04T09:18:24.865Z,38.10
2019-01-04T09:19:24.852Z,40.20
2019-01-04T09:20:24.843Z,38.70
2019-01-04T09:21:24.831Z,40.20
2019-01-04T09:22:24.831Z,45.60
2019-01-04T09:23:24.812Z,42.40
2019-01-04T09:24:24.798Z,41.10
2019-01-04T09:25:24.790Z,42.60
2019-01-04T09:26:24.778Z,42.00
2019-01-04T09:27:24.775Z,40.20
2019-01-04T09:28:24.759Z,39.40
2019-01-04T09:29:24.752Z,38.00
2019-01-04T09:30:24.733Z,39.00
2019-01-04T09:31:24.724Z,43.40
2019-01-04T09:32:24.722Z,40.90
2019-01-04T09:33:24.701Z,51.10
2019-01-04T09:34:24.692Z,40.50
2019-01-04T09:35:24.680Z,42.20
2019-01-04T09:36:24.669Z,44.30
2019-01-04T09:37:24.669Z,40.30
2019-01-04T09:38:24.649Z,41.40
2019-01-04T09:39:24.638Z,46.20
2019-01-04T09:40:24.629Z,45.70
2019-01-04T09:41:24.616Z,47.20
2019-01-04T09:42:24.620Z,41.50
2019-01-04T09:43:24.596Z,40.10
2019-01-04T09:44:24.585Z,41.30
2019-01-04T09:45:24.581Z,34.10
2019-01-04T09:46:24.564Z,27.10
2019-01-04T09:47:24.559Z,21.20
2019-01-04T09:48:24.544Z,23.30
2019-01-04T09:49:24.529Z,30.00
2019-01-04T09:50:24.519Z,29.70
2019-01-04T09:51:24.509Z,23.90
2019-01-04T09:52:24.529Z,28.80
2019-01-04T09:53:24.490Z,21.30
2019-01-04T09:54:24.476Z,24.20
2019-01-04T09:55:24.471Z,26.70
2019-01-04T09:56:24.458Z,25.40
2019-01-04T09:57:24.506Z,25.00
2019-01-04T09:58:24.448Z,30.30
2019-01-04T09:59:24.422Z,32.30
2019-01-04T10:00:24.414Z,34.00
2019-01-04T10:01:24.402Z,33.90
2019-01-04T10:02:24.389Z,33.50
2019-01-04T10:03:24.391Z,32.90
2019-01-04T10:04:24.369Z,32.40
2019-01-04T10:05:24.359Z,36.00
2019-01-04T10:06:24.348Z,34.00
2019-01-04T10:07:24.337Z,30.10
2019-01-04T10:08:24.337Z,33.60
2019-01-04T10:09:24.315Z,33.90
2019-01-04T10:10:24.306Z,33.20
2019-01-04T10:11:24.294Z,34.80
2019-01-04T10:12:24.283Z,31.40
2019-01-04T10:13:24.284Z,33.90
2019-01-04T10:14:24.261Z,35.90
2019-01-04T10:15:24.253Z,31.90
2019-01-04T10:16:24.239Z,33.20
2019-01-04T10:17:24.229Z,32.80
2019-01-04T10:18:24.255Z,33.00
2019-01-04T10:19:24.208Z,34.90
2019-01-04T10:20:24.201Z,39.50
2019-01-04T10:21:24.186Z,37.50
2019-01-04T10:22:24.178Z,31.20
2019-01-04T10:23:24.165Z,31.00
2019-01-04T10:24:24.163Z,30.70
2019-01-04T10:25:24.145Z,33.20
2019-01-04T10:26:24.131Z,37.50
2019-01-04T10:27:24.123Z,31.40
2019-01-04T10:28:24.110Z,30.60
2019-01-04T10:29:24.115Z,36.60
2019-01-04T10:30:24.088Z,33.40
2019-01-04T10:31:24.078Z,37.00
2019-01-04T10:32:24.071Z,33.90
2019-01-04T10:33:24.057Z,34.40
2019-01-04T10:34:24.058Z,34.50
2019-01-04T10:35:24.034Z,30.60
2019-01-04T10:36:24.025Z,30.60
2019-01-04T10:37:24.022Z,29.90
2019-01-04T10:38:24.002Z,29.40
2019-01-04T10:39:24.002Z,29.80
2019-01-04T10:40:23.988Z,29.50
2019-01-04T10:41:23.973Z,30.40
2019-01-04T10:42:23.960Z,26.80
2019-01-04T10:43:23.950Z,29.60
2019-01-04T10:44:23.961Z,30.00
2019-01-04T10:45:23.931Z,28.20
2019-01-04T10:46:23.915Z,32.20
2019-01-04T10:47:23.906Z,28.50
2019-01-04T10:48:23.894Z,28.90
2019-01-04T10:49:23.892Z,28.60
2019-01-04T10:50:23.877Z,28.60
2019-01-04T10:51:23.866Z,28.30
2019-01-04T10:52:24.146Z,29.10
2019-01-04T10:53:23.842Z,28.40
2019-01-04T10:54:23.855Z,29.00
2019-01-04T10:55:23.824Z,29.40
2019-01-04T10:56:23.811Z,29.10
2019-01-04T10:57:23.803Z,29.60
2019-01-04T10:58:23.789Z,32.60
2019-01-04T10:59:23.777Z,33.40
2019-01-04T11:00:23.775Z,27.50
2019-01-04T11:01:23.757Z,27.00
2019-01-04T11:02:23.744Z,28.80
2019-01-04T11:03:23.732Z,27.90
2019-01-04T11:04:23.723Z,25.60
2019-01-04T11:05:23.719Z,27.80
2019-01-04T11:06:23.700Z,25.70
2019-01-04T11:07:23.710Z,26.90
2019-01-04T11:08:23.678Z,28.10
2019-01-04T11:09:23.669Z,25.90
2019-01-04T11:10:23.673Z,25.90
2019-01-04T11:11:23.649Z,23.20
2019-01-04T11:12:23.635Z,26.40
2019-01-04T11:13:23.627Z,24.80
2019-01-04T11:14:23.616Z,24.20
2019-01-04T11:15:23.611Z,21.50
2019-01-04T11:16:23.593Z,23.20
2019-01-04T11:17:23.583Z,22.50
2019-01-04T11:18:23.570Z,22.80
2019-01-04T11:19:23.561Z,23.90
2019-01-04T11:20:23.556Z,23.90
2019-01-04T11:21:23.540Z,21.30
2019-01-04T11:22:23.527Z,20.60
2019-01-04T11:23:23.517Z,21.80
2019-01-04T11:24:23.508Z,23.80
2019-01-04T11:25:23.505Z,23.40
2019-01-04T11:26:23.484Z,20.80
2019-01-04T11:27:23.476Z,19.80
2019-01-04T11:28:23.463Z,20.50
2019-01-04T11:29:23.451Z,20.50
2019-01-04T11:30:23.451Z,19.90
2019-01-04T11:31:23.431Z,20.50
2019-01-04T11:32:23.449Z,19.30
2019-01-04T11:33:23.408Z,20.10
2019-01-04T11:34:23.408Z,20.90
2019-01-04T11:35:23.415Z,20.70
2019-01-04T11:36:23.377Z,20.40
2019-01-04T11:37:23.366Z,21.20
2019-01-04T11:38:23.354Z,21.50
2019-01-04T11:39:23.344Z,20.60
2019-01-04T11:40:23.335Z,20.40
2019-01-04T11:41:23.333Z,20.20
2019-01-04T11:42:23.315Z,20.70
2019-01-04T11:43:23.305Z,19.60
2019-01-04T11:44:23.293Z,20.90
2019-01-04T11:45:23.280Z,20.80
2019-01-04T11:46:23.280Z,20.30
2019-01-04T11:47:23.268Z,19.50
2019-01-04T11:48:23.248Z,19.40
2019-01-04T11:49:23.239Z,20.90
2019-01-04T11:50:23.226Z,20.10
2019-01-04T11:51:23.225Z,21.40
2019-01-04T11:52:23.206Z,19.90
2019-01-04T11:53:23.198Z,22.20
2019-01-04T11:54:23.191Z,20.90
2019-01-04T11:55:23.177Z,19.50
2019-01-04T11:56:23.171Z,19.80
2019-01-04T11:57:23.151Z,21.10
2019-01-04T11:58:23.142Z,19.20
2019-01-04T11:59:23.136Z,19.80
2019-01-04T12:00:23.119Z,21.80
2019-01-04T12:01:23.120Z,18.80
2019-01-04T12:02:26.352Z,19.10
2019-01-04T12:03:23.087Z,20.80
2019-01-04T12:04:23.076Z,19.80
2019-01-04T12:05:23.067Z,18.10
2019-01-04T12:06:23.066Z,16.40
2019-01-04T12:07:23.042Z,17.40
2019-01-04T12:08:23.032Z,18.10
2019-01-04T12:09:23.021Z,18.50
2019-01-04T12:10:23.011Z,17.10
2019-01-04T12:11:23.014Z,20.00
2019-01-04T12:12:22.989Z,17.40
2019-01-04T12:13:22.978Z,16.60
2019-01-04T12:14:23.005Z,18.20
2019-01-04T12:15:22.957Z,16.00
2019-01-04T12:16:22.975Z,16.10
2019-01-04T12:17:22.935Z,16.00
2019-01-04T12:18:22.927Z,15.60
2019-01-04T12:19:22.913Z,16.70
2019-01-04T12:20:22.902Z,15.70
2019-01-04T12:21:22.892Z,18.00
2019-01-04T12:22:22.890Z,15.20
2019-01-04T12:23:22.883Z,17.60
2019-01-04T12:24:22.864Z,15.10
2019-01-04T12:25:22.848Z,14.80
2019-01-04T12:26:22.837Z,16.80
2019-01-04T12:27:22.837Z,16.10
2019-01-04T12:28:22.824Z,15.20
2019-01-04T12:29:22.806Z,14.30
2019-01-04T12:30:22.794Z,13.10
2019-01-04T12:31:22.784Z,14.70
2019-01-04T12:32:22.783Z,14.80
2019-01-04T12:33:22.765Z,14.70
2019-01-04T12:34:22.750Z,15.70
2019-01-04T12:35:22.739Z,15.00
2019-01-04T12:36:22.729Z,15.80
2019-01-04T12:37:22.751Z,15.20
2019-01-04T12:38:22.708Z,13.80
2019-01-04T12:39:22.697Z,14.40
2019-01-04T12:40:22.686Z,14.30
2019-01-04T12:41:22.678Z,16.40
2019-01-04T12:42:22.664Z,16.20
2019-01-04T12:43:22.662Z,17.20
2019-01-04T12:44:22.645Z,15.20
2019-01-04T12:45:22.633Z,16.10
2019-01-04T12:46:22.622Z,16.80
2019-01-04T12:47:22.613Z,17.60
2019-01-04T12:48:22.608Z,16.30
2019-01-04T12:49:22.589Z,16.00
2019-01-04T12:50:22.578Z,14.10
2019-01-04T12:51:22.569Z,16.00
2019-01-04T12:52:22.560Z,15.90
2019-01-04T12:53:22.555Z,14.40
2019-01-04T12:54:22.535Z,14.80
2019-01-04T12:55:22.524Z,14.30